sensor_id;sensor_type;location;lat;lon;timestamp;temperature;humidity
75799;DHT22;70933;44.692;37.776;2023-08-24T00:00:12;28.47;26.78
75799;DHT22;70933;44.692;37.776;2023-08-24T00:01:14;28.46;26.48
75799;DHT22;70933;44.692;37.776;2023-08-24T00:02:17;28.46;26.12
75799;DHT22;70933;44.692;37.776;2023-08-24T00:03:19;28.44;25.86
75799;DHT22;70933;44.692;37.776;2023-08-24T00:04:22;28.43;26.17
75799;DHT22;70933;44.692;37.776;2023-08-24T00:05:24;28.44;27.29
75799;DHT22;70933;44.692;37.776;2023-08-24T00:06:25;28.47;28.54
75799;DHT22;70933;44.692;37.776;2023-08-24T00:07:27;28.47;28.36
75799;DHT22;70933;44.692;37.776;2023-08-24T00:08:28;28.49;27.52
75799;DHT22;70933;44.692;37.776;2023-08-24T00:09:30;28.47;27.27
75799;DHT22;70933;44.692;37.776;2023-08-24T00:10:31;28.48;26.74
75799;DHT22;70933;44.692;37.776;2023-08-24T00:11:33;28.47;26.41
75799;DHT22;70933;44.692;37.776;2023-08-24T00:12:35;28.46;26.20
75799;DHT22;70933;44.692;37.776;2023-08-24T00:13:37;28.45;25.79
75799;DHT22;70933;44.692;37.776;2023-08-24T00:14:38;28.43;25.59
75799;DHT22;70933;44.692;37.776;2023-08-24T00:15:40;28.43;25.36
75799;DHT22;70933;44.692;37.776;2023-08-24T00:16:42;28.43;26.02
75799;DHT22;70933;44.692;37.776;2023-08-24T00:17:43;28.45;27.58
75799;DHT22;70933;44.692;37.776;2023-08-24T00:18:45;28.46;28.26
75799;DHT22;70933;44.692;37.776;2023-08-24T00:19:47;28.48;27.42
75799;DHT22;70933;44.692;37.776;2023-08-24T00:20:49;28.48;26.93
75799;DHT22;70933;44.692;37.776;2023-08-24T00:21:50;28.47;26.52
75799;DHT22;70933;44.692;37.776;2023-08-24T00:22:52;28.47;26.43
75799;DHT22;70933;44.692;37.776;2023-08-24T00:23:54;28.46;26.01
75799;DHT22;70933;44.692;37.776;2023-08-24T00:24:56;28.45;25.68
75799;DHT22;70933;44.692;37.776;2023-08-24T00:25:57;28.44;25.48
75799;DHT22;70933;44.692;37.776;2023-08-24T00:26:59;28.43;25.20
75799;DHT22;70933;44.692;37.776;2023-08-24T00:28:00;28.42;25.23
75799;DHT22;70933;44.692;37.776;2023-08-24T00:29:02;28.45;26.22
75799;DHT22;70933;44.692;37.776;2023-08-24T00:30:06;28.46;27.52
75799;DHT22;70933;44.692;37.776;2023-08-24T00:31:10;28.48;28.01
75799;DHT22;70933;44.692;37.776;2023-08-24T00:32:11;28.46;27.03
75799;DHT22;70933;44.692;37.776;2023-08-24T00:33:13;28.47;26.61
75799;DHT22;70933;44.692;37.776;2023-08-24T00:34:14;28.47;26.40
75799;DHT22;70933;44.692;37.776;2023-08-24T00:35:16;28.46;26.01
75799;DHT22;70933;44.692;37.776;2023-08-24T00:36:17;28.45;25.78
75799;DHT22;70933;44.692;37.776;2023-08-24T00:37:24;28.44;25.52
75799;DHT22;70933;44.692;37.776;2023-08-24T00:38:25;28.44;25.26
75799;DHT22;70933;44.692;37.776;2023-08-24T00:39:27;28.42;24.98
75799;DHT22;70933;44.692;37.776;2023-08-24T00:40:29;28.41;25.56
75799;DHT22;70933;44.692;37.776;2023-08-24T00:41:31;28.43;26.76
75799;DHT22;70933;44.692;37.776;2023-08-24T00:42:32;28.46;27.97
75799;DHT22;70933;44.692;37.776;2023-08-24T00:43:34;28.46;27.42
75799;DHT22;70933;44.692;37.776;2023-08-24T00:44:37;28.46;26.79
75799;DHT22;70933;44.692;37.776;2023-08-24T00:45:38;28.46;26.52
75799;DHT22;70933;44.692;37.776;2023-08-24T00:46:40;28.46;26.20
75799;DHT22;70933;44.692;37.776;2023-08-24T00:47:44;28.45;25.94
75799;DHT22;70933;44.692;37.776;2023-08-24T00:48:46;28.42;25.59
75799;DHT22;70933;44.692;37.776;2023-08-24T00:49:48;28.43;25.23
75799;DHT22;70933;44.692;37.776;2023-08-24T00:50:50;28.42;25.04
75799;DHT22;70933;44.692;37.776;2023-08-24T00:51:51;28.40;24.94
75799;DHT22;70933;44.692;37.776;2023-08-24T00:52:53;28.41;25.78
75799;DHT22;70933;44.692;37.776;2023-08-24T00:53:55;28.43;27.21
75799;DHT22;70933;44.692;37.776;2023-08-24T00:54:59;28.45;28.02
75799;DHT22;70933;44.692;37.776;2023-08-24T00:56:01;28.45;26.86
75799;DHT22;70933;44.692;37.776;2023-08-24T00:57:03;28.45;26.42
75799;DHT22;70933;44.692;37.776;2023-08-24T00:58:05;28.45;26.13
75799;DHT22;70933;44.692;37.776;2023-08-24T00:59:07;28.43;25.78
75799;DHT22;70933;44.692;37.776;2023-08-24T01:00:09;28.43;25.55
75799;DHT22;70933;44.692;37.776;2023-08-24T01:01:11;28.42;25.36
75799;DHT22;70933;44.692;37.776;2023-08-24T01:02:15;28.40;25.01
75799;DHT22;70933;44.692;37.776;2023-08-24T01:03:16;28.40;24.69
75799;DHT22;70933;44.692;37.776;2023-08-24T01:04:18;28.39;24.90
75799;DHT22;70933;44.692;37.776;2023-08-24T01:05:20;28.40;26.01
75799;DHT22;70933;44.692;37.776;2023-08-24T01:06:22;28.42;27.08
75799;DHT22;70933;44.692;37.776;2023-08-24T01:07:23;28.44;27.20
75799;DHT22;70933;44.692;37.776;2023-08-24T01:08:25;28.44;26.46
75799;DHT22;70933;44.692;37.776;2023-08-24T01:09:27;28.43;26.07
75799;DHT22;70933;44.692;37.776;2023-08-24T01:10:38;28.42;25.65
75799;DHT22;70933;44.692;37.776;2023-08-24T01:13:38;28.41;24.94
75799;DHT22;70933;44.692;37.776;2023-08-24T01:16:11;28.38;24.68
75799;DHT22;70933;44.692;37.776;2023-08-24T01:17:15;28.39;25.87
75799;DHT22;70933;44.692;37.776;2023-08-24T01:18:22;28.42;26.95
75799;DHT22;70933;44.692;37.776;2023-08-24T01:19:34;28.43;26.88
75799;DHT22;70933;44.692;37.776;2023-08-24T01:20:39;28.42;26.18
75799;DHT22;70933;44.692;37.776;2023-08-24T01:21:41;28.41;25.85
75799;DHT22;70933;44.692;37.776;2023-08-24T01:24:40;28.39;25.01
75799;DHT22;70933;44.692;37.776;2023-08-24T01:25:52;28.38;24.65
75799;DHT22;70933;44.692;37.776;2023-08-24T01:26:55;28.37;24.40
75799;DHT22;70933;44.692;37.776;2023-08-24T01:27:57;28.35;24.40
75799;DHT22;70933;44.692;37.776;2023-08-24T01:29:01;28.37;25.28
75799;DHT22;70933;44.692;37.776;2023-08-24T01:30:05;28.40;26.71
75799;DHT22;70933;44.692;37.776;2023-08-24T01:31:07;28.40;27.20
75799;DHT22;70933;44.692;37.776;2023-08-24T01:32:10;28.40;26.21
75799;DHT22;70933;44.692;37.776;2023-08-24T01:33:12;28.40;25.76
75799;DHT22;70933;44.692;37.776;2023-08-24T01:34:14;28.40;25.50
75799;DHT22;70933;44.692;37.776;2023-08-24T01:35:16;28.39;25.17
75799;DHT22;70933;44.692;37.776;2023-08-24T01:36:17;28.38;24.86
75799;DHT22;70933;44.692;37.776;2023-08-24T01:37:19;28.35;24.59
75799;DHT22;70933;44.692;37.776;2023-08-24T01:38:20;28.37;24.33
75799;DHT22;70933;44.692;37.776;2023-08-24T01:39:28;28.34;24.15
75799;DHT22;70933;44.692;37.776;2023-08-24T01:41:50;28.38;26.03
75799;DHT22;70933;44.692;37.776;2023-08-24T01:43:03;28.38;27.13
75799;DHT22;70933;44.692;37.776;2023-08-24T01:44:07;28.40;26.06
75799;DHT22;70933;44.692;37.776;2023-08-24T01:45:10;28.38;25.60
75799;DHT22;70933;44.692;37.776;2023-08-24T01:46:16;28.38;25.25
75799;DHT22;70933;44.692;37.776;2023-08-24T01:47:19;28.38;24.90
75799;DHT22;70933;44.692;37.776;2023-08-24T01:48:22;28.37;24.67
75799;DHT22;70933;44.692;37.776;2023-08-24T01:49:25;28.35;24.38
75799;DHT22;70933;44.692;37.776;2023-08-24T01:50:27;28.33;24.14
75799;DHT22;70933;44.692;37.776;2023-08-24T01:51:30;28.33;23.97
75799;DHT22;70933;44.692;37.776;2023-08-24T01:52:32;28.31;24.48
75799;DHT22;70933;44.692;37.776;2023-08-24T01:53:34;28.34;25.59
75799;DHT22;70933;44.692;37.776;2023-08-24T01:54:35;28.37;26.67
75799;DHT22;70933;44.692;37.776;2023-08-24T01:55:37;28.38;26.15
75799;DHT22;70933;44.692;37.776;2023-08-24T01:56:40;28.39;25.65
75799;DHT22;70933;44.692;37.776;2023-08-24T01:57:41;28.37;25.29
75799;DHT22;70933;44.692;37.776;2023-08-24T01:58:43;28.38;24.94
75799;DHT22;70933;44.692;37.776;2023-08-24T01:59:44;28.37;24.68
75799;DHT22;70933;44.692;37.776;2023-08-24T02:00:46;28.35;24.40
75799;DHT22;70933;44.692;37.776;2023-08-24T02:01:47;28.35;24.16
75799;DHT22;70933;44.692;37.776;2023-08-24T02:02:49;28.35;23.92
75799;DHT22;70933;44.692;37.776;2023-08-24T02:03:50;28.34;23.91
75799;DHT22;70933;44.692;37.776;2023-08-24T02:04:52;28.33;24.82
75799;DHT22;70933;44.692;37.776;2023-08-24T02:05:53;28.37;25.79
75799;DHT22;70933;44.692;37.776;2023-08-24T02:06:55;28.39;26.77
75799;DHT22;70933;44.692;37.776;2023-08-24T02:07:56;28.40;25.85
75799;DHT22;70933;44.692;37.776;2023-08-24T02:08:58;28.39;25.45
75799;DHT22;70933;44.692;37.776;2023-08-24T02:10:00;28.39;25.07
75799;DHT22;70933;44.692;37.776;2023-08-24T02:11:01;28.38;24.82
75799;DHT22;70933;44.692;37.776;2023-08-24T02:12:03;28.37;24.38
75799;DHT22;70933;44.692;37.776;2023-08-24T02:13:05;28.37;24.27
75799;DHT22;70933;44.692;37.776;2023-08-24T02:14:06;28.34;23.95
75799;DHT22;70933;44.692;37.776;2023-08-24T02:15:13;28.35;23.69
75799;DHT22;70933;44.692;37.776;2023-08-24T02:16:14;28.32;23.87
75799;DHT22;70933;44.692;37.776;2023-08-24T02:17:16;28.34;24.87
75799;DHT22;70933;44.692;37.776;2023-08-24T02:18:17;28.35;26.03
75799;DHT22;70933;44.692;37.776;2023-08-24T02:19:19;28.39;26.30
75799;DHT22;70933;44.692;37.776;2023-08-24T02:20:20;28.40;25.49
75799;DHT22;70933;44.692;37.776;2023-08-24T02:21:22;28.37;25.08
75799;DHT22;70933;44.692;37.776;2023-08-24T02:22:23;28.37;24.82
75799;DHT22;70933;44.692;37.776;2023-08-24T02:23:25;28.37;24.54
75799;DHT22;70933;44.692;37.776;2023-08-24T02:24:27;28.37;24.23
75799;DHT22;70933;44.692;37.776;2023-08-24T02:25:28;28.34;23.98
75799;DHT22;70933;44.692;37.776;2023-08-24T02:26:30;28.34;23.70
75799;DHT22;70933;44.692;37.776;2023-08-24T02:27:32;28.33;23.50
75799;DHT22;70933;44.692;37.776;2023-08-24T02:28:35;28.31;24.00
75799;DHT22;70933;44.692;37.776;2023-08-24T02:29:37;28.34;25.14
75799;DHT22;70933;44.692;37.776;2023-08-24T02:30:41;28.35;26.42
75799;DHT22;70933;44.692;37.776;2023-08-24T02:31:43;28.38;25.68
75799;DHT22;70933;44.692;37.776;2023-08-24T02:32:44;28.38;25.24
75799;DHT22;70933;44.692;37.776;2023-08-24T02:33:45;28.38;24.97
75799;DHT22;70933;44.692;37.776;2023-08-24T02:34:47;28.37;24.64
75799;DHT22;70933;44.692;37.776;2023-08-24T02:35:49;28.34;24.48
75799;DHT22;70933;44.692;37.776;2023-08-24T02:36:50;28.34;24.11
75799;DHT22;70933;44.692;37.776;2023-08-24T02:37:54;28.33;23.97
75799;DHT22;70933;44.692;37.776;2023-08-24T02:38:58;28.31;23.75
75799;DHT22;70933;44.692;37.776;2023-08-24T02:39:59;28.32;23.75
75799;DHT22;70933;44.692;37.776;2023-08-24T02:41:05;28.32;24.90
75799;DHT22;70933;44.692;37.776;2023-08-24T02:42:09;28.33;25.91
75799;DHT22;70933;44.692;37.776;2023-08-24T02:43:10;28.35;26.51
75799;DHT22;70933;44.692;37.776;2023-08-24T02:44:12;28.37;25.64
75799;DHT22;70933;44.692;37.776;2023-08-24T02:45:13;28.37;25.17
75799;DHT22;70933;44.692;37.776;2023-08-24T02:46:15;28.37;24.97
75799;DHT22;70933;44.692;37.776;2023-08-24T02:47:16;28.35;24.76
75799;DHT22;70933;44.692;37.776;2023-08-24T02:48:18;28.34;24.43
75799;DHT22;70933;44.692;37.776;2023-08-24T02:49:19;28.32;24.20
75799;DHT22;70933;44.692;37.776;2023-08-24T02:50:22;28.32;23.95
75799;DHT22;70933;44.692;37.776;2023-08-24T02:51:24;28.31;23.75
75799;DHT22;70933;44.692;37.776;2023-08-24T02:52:25;28.31;24.20
75799;DHT22;70933;44.692;37.776;2023-08-24T02:53:27;28.32;25.46
75799;DHT22;70933;44.692;37.776;2023-08-24T02:54:29;28.35;26.42
75799;DHT22;70933;44.692;37.776;2023-08-24T02:55:32;28.37;26.27
75799;DHT22;70933;44.692;37.776;2023-08-24T02:56:34;28.37;25.58
75799;DHT22;70933;44.692;37.776;2023-08-24T02:57:35;28.35;25.23
75799;DHT22;70933;44.692;37.776;2023-08-24T02:58:38;28.34;25.03
75799;DHT22;70933;44.692;37.776;2023-08-24T02:59:40;28.33;24.70
75799;DHT22;70933;44.692;37.776;2023-08-24T03:00:44;28.33;24.40
75799;DHT22;70933;44.692;37.776;2023-08-24T03:01:46;28.32;24.22
75799;DHT22;70933;44.692;37.776;2023-08-24T03:02:47;28.30;24.01
75799;DHT22;70933;44.692;37.776;2023-08-24T03:03:49;28.29;23.88
75799;DHT22;70933;44.692;37.776;2023-08-24T03:04:51;28.31;24.79
75799;DHT22;70933;44.692;37.776;2023-08-24T03:06:01;28.32;26.34
75799;DHT22;70933;44.692;37.776;2023-08-24T03:07:03;28.34;27.10
75799;DHT22;70933;44.692;37.776;2023-08-24T03:08:08;28.37;26.00
75799;DHT22;70933;44.692;37.776;2023-08-24T03:09:09;28.35;25.54
75799;DHT22;70933;44.692;37.776;2023-08-24T03:10:11;28.34;25.41
75799;DHT22;70933;44.692;37.776;2023-08-24T03:11:14;28.32;25.02
75799;DHT22;70933;44.692;37.776;2023-08-24T03:12:16;28.31;24.75
75799;DHT22;70933;44.692;37.776;2023-08-24T03:13:17;28.30;24.56
75799;DHT22;70933;44.692;37.776;2023-08-24T03:14:19;28.31;24.30
75799;DHT22;70933;44.692;37.776;2023-08-24T03:15:21;28.31;24.15
75799;DHT22;70933;44.692;37.776;2023-08-24T03:16:22;28.29;24.40
75799;DHT22;70933;44.692;37.776;2023-08-24T03:17:24;28.30;25.57
75799;DHT22;70933;44.692;37.776;2023-08-24T03:18:25;28.33;26.72
75799;DHT22;70933;44.692;37.776;2023-08-24T03:19:27;28.33;26.61
75799;DHT22;70933;44.692;37.776;2023-08-24T03:20:28;28.34;25.94
75799;DHT22;70933;44.692;37.776;2023-08-24T03:21:30;28.34;25.56
75799;DHT22;70933;44.692;37.776;2023-08-24T03:22:32;28.33;25.33
75799;DHT22;70933;44.692;37.776;2023-08-24T03:23:34;28.32;24.95
75799;DHT22;70933;44.692;37.776;2023-08-24T03:24:35;28.32;24.65
75799;DHT22;70933;44.692;37.776;2023-08-24T03:25:39;28.31;24.43
75799;DHT22;70933;44.692;37.776;2023-08-24T03:26:42;28.31;24.22
75799;DHT22;70933;44.692;37.776;2023-08-24T03:27:44;28.29;23.91
75799;DHT22;70933;44.692;37.776;2023-08-24T03:28:45;28.29;24.81
75799;DHT22;70933;44.692;37.776;2023-08-24T03:29:47;28.30;25.97
75799;DHT22;70933;44.692;37.776;2023-08-24T03:30:51;28.34;27.06
75799;DHT22;70933;44.692;37.776;2023-08-24T03:31:53;28.34;26.13
75799;DHT22;70933;44.692;37.776;2023-08-24T03:32:54;28.33;25.65
75799;DHT22;70933;44.692;37.776;2023-08-24T03:33:56;28.33;25.41
75799;DHT22;70933;44.692;37.776;2023-08-24T03:35:01;28.33;25.08
75799;DHT22;70933;44.692;37.776;2023-08-24T03:36:05;28.32;24.87
75799;DHT22;70933;44.692;37.776;2023-08-24T03:37:07;28.31;24.55
75799;DHT22;70933;44.692;37.776;2023-08-24T03:38:09;28.30;24.29
75799;DHT22;70933;44.692;37.776;2023-08-24T03:39:11;28.29;24.09
75799;DHT22;70933;44.692;37.776;2023-08-24T03:40:13;28.28;24.35
75799;DHT22;70933;44.692;37.776;2023-08-24T03:41:14;28.29;25.47
75799;DHT22;70933;44.692;37.776;2023-08-24T03:42:16;28.33;26.49
75799;DHT22;70933;44.692;37.776;2023-08-24T03:43:18;28.33;26.84
75799;DHT22;70933;44.692;37.776;2023-08-24T03:44:19;28.34;26.04
75799;DHT22;70933;44.692;37.776;2023-08-24T03:45:21;28.33;25.65
75799;DHT22;70933;44.692;37.776;2023-08-24T03:46:23;28.33;25.31
75799;DHT22;70933;44.692;37.776;2023-08-24T03:47:24;28.31;25.04
75799;DHT22;70933;44.692;37.776;2023-08-24T03:48:27;28.32;24.77
75799;DHT22;70933;44.692;37.776;2023-08-24T03:49:28;28.31;24.49
75799;DHT22;70933;44.692;37.776;2023-08-24T03:50:30;28.29;24.26
75799;DHT22;70933;44.692;37.776;2023-08-24T03:51:31;28.28;24.04
75799;DHT22;70933;44.692;37.776;2023-08-24T03:52:34;28.28;24.62
75799;DHT22;70933;44.692;37.776;2023-08-24T03:53:36;28.31;25.71
75799;DHT22;70933;44.692;37.776;2023-08-24T03:54:37;28.32;27.10
75799;DHT22;70933;44.692;37.776;2023-08-24T03:55:38;28.34;26.39
75799;DHT22;70933;44.692;37.776;2023-08-24T03:56:40;28.33;25.94
75799;DHT22;70933;44.692;37.776;2023-08-24T03:57:42;28.34;25.65
75799;DHT22;70933;44.692;37.776;2023-08-24T03:58:44;28.33;25.31
75799;DHT22;70933;44.692;37.776;2023-08-24T03:59:45;28.32;25.11
75799;DHT22;70933;44.692;37.776;2023-08-24T04:00:47;28.31;24.91
75799;DHT22;70933;44.692;37.776;2023-08-24T04:01:49;28.30;24.78
75799;DHT22;70933;44.692;37.776;2023-08-24T04:02:52;28.28;24.62
75799;DHT22;70933;44.692;37.776;2023-08-24T04:03:58;28.29;24.67
75799;DHT22;70933;44.692;37.776;2023-08-24T04:05:00;28.29;25.68
75799;DHT22;70933;44.692;37.776;2023-08-24T04:06:01;28.32;27.51
75799;DHT22;70933;44.692;37.776;2023-08-24T04:07:04;28.34;27.99
75799;DHT22;70933;44.692;37.776;2023-08-24T04:08:06;28.33;26.85
75799;DHT22;70933;44.692;37.776;2023-08-24T04:09:08;28.33;26.51
75799;DHT22;70933;44.692;37.776;2023-08-24T04:10:11;28.33;26.32
75799;DHT22;70933;44.692;37.776;2023-08-24T04:11:13;28.33;26.32
75799;DHT22;70933;44.692;37.776;2023-08-24T04:12:15;28.31;26.07
75799;DHT22;70933;44.692;37.776;2023-08-24T04:13:16;28.31;25.88
75799;DHT22;70933;44.692;37.776;2023-08-24T04:14:18;28.30;25.68
75799;DHT22;70933;44.692;37.776;2023-08-24T04:15:19;28.29;25.73
75799;DHT22;70933;44.692;37.776;2023-08-24T04:16:21;28.29;26.04
75799;DHT22;70933;44.692;37.776;2023-08-24T04:17:24;28.29;27.29
75799;DHT22;70933;44.692;37.776;2023-08-24T04:18:25;28.32;28.37
75799;DHT22;70933;44.692;37.776;2023-08-24T04:19:27;28.33;28.52
75799;DHT22;70933;44.692;37.776;2023-08-24T04:20:28;28.33;27.57
75799;DHT22;70933;44.692;37.776;2023-08-24T04:21:30;28.31;27.62
75799;DHT22;70933;44.692;37.776;2023-08-24T04:22:31;28.31;27.23
75799;DHT22;70933;44.692;37.776;2023-08-24T04:23:33;28.31;27.07
75799;DHT22;70933;44.692;37.776;2023-08-24T04:24:35;28.31;26.72
75799;DHT22;70933;44.692;37.776;2023-08-24T04:25:39;28.30;26.53
75799;DHT22;70933;44.692;37.776;2023-08-24T04:26:41;28.29;26.36
75799;DHT22;70933;44.692;37.776;2023-08-24T04:27:42;28.28;26.14
75799;DHT22;70933;44.692;37.776;2023-08-24T04:28:44;28.29;27.32
75799;DHT22;70933;44.692;37.776;2023-08-24T04:29:45;28.30;28.20
75799;DHT22;70933;44.692;37.776;2023-08-24T04:30:53;28.32;29.89
75799;DHT22;70933;44.692;37.776;2023-08-24T04:31:55;28.33;28.56
75799;DHT22;70933;44.692;37.776;2023-08-24T04:32:56;28.33;28.25
75799;DHT22;70933;44.692;37.776;2023-08-24T04:33:58;28.33;28.32
75799;DHT22;70933;44.692;37.776;2023-08-24T04:34:59;28.32;27.91
75799;DHT22;70933;44.692;37.776;2023-08-24T04:36:02;28.33;27.38
75799;DHT22;70933;44.692;37.776;2023-08-24T04:37:05;28.31;27.30
75799;DHT22;70933;44.692;37.776;2023-08-24T04:38:08;28.30;26.93
75799;DHT22;70933;44.692;37.776;2023-08-24T04:39:11;28.29;26.60
75799;DHT22;70933;44.692;37.776;2023-08-24T04:40:13;28.29;26.76
75799;DHT22;70933;44.692;37.776;2023-08-24T04:41:14;28.30;28.04
75799;DHT22;70933;44.692;37.776;2023-08-24T04:42:16;28.33;29.52
75799;DHT22;70933;44.692;37.776;2023-08-24T04:43:18;28.35;29.39
75799;DHT22;70933;44.692;37.776;2023-08-24T04:44:20;28.34;28.48
75799;DHT22;70933;44.692;37.776;2023-08-24T04:45:22;28.37;27.94
75799;DHT22;70933;44.692;37.776;2023-08-24T04:46:23;28.33;27.69
75799;DHT22;70933;44.692;37.776;2023-08-24T04:47:25;28.33;27.47
75799;DHT22;70933;44.692;37.776;2023-08-24T04:48:26;28.32;27.46
75799;DHT22;70933;44.692;37.776;2023-08-24T04:49:29;28.30;27.13
75799;DHT22;70933;44.692;37.776;2023-08-24T04:50:31;28.32;26.94
75799;DHT22;70933;44.692;37.776;2023-08-24T04:51:33;28.31;26.65
75799;DHT22;70933;44.692;37.776;2023-08-24T04:52:34;28.30;27.39
75799;DHT22;70933;44.692;37.776;2023-08-24T04:53:36;28.32;28.96
75799;DHT22;70933;44.692;37.776;2023-08-24T04:54:37;28.34;30.25
75799;DHT22;70933;44.692;37.776;2023-08-24T04:55:38;28.34;29.58
75799;DHT22;70933;44.692;37.776;2023-08-24T04:56:40;28.33;28.85
75799;DHT22;70933;44.692;37.776;2023-08-24T04:57:42;28.34;28.66
75799;DHT22;70933;44.692;37.776;2023-08-24T04:58:58;28.33;28.51
75799;DHT22;70933;44.692;37.776;2023-08-24T05:00:01;28.34;28.26
75799;DHT22;70933;44.692;37.776;2023-08-24T05:01:06;28.30;28.02
75799;DHT22;70933;44.692;37.776;2023-08-24T05:02:08;28.33;29.00
75799;DHT22;70933;44.692;37.776;2023-08-24T05:03:10;28.33;28.73
75799;DHT22;70933;44.692;37.776;2023-08-24T05:04:11;28.34;28.88
75799;DHT22;70933;44.692;37.776;2023-08-24T05:05:13;28.35;30.55
75799;DHT22;70933;44.692;37.776;2023-08-24T05:06:18;28.39;32.20
75799;DHT22;70933;44.692;37.776;2023-08-24T05:07:20;28.41;32.63
75799;DHT22;70933;44.692;37.776;2023-08-24T05:08:21;28.41;31.70
75799;DHT22;70933;44.692;37.776;2023-08-24T05:09:23;28.42;31.41
75799;DHT22;70933;44.692;37.776;2023-08-24T05:10:25;28.44;30.97
75799;DHT22;70933;44.692;37.776;2023-08-24T05:11:27;28.45;30.96
75799;DHT22;70933;44.692;37.776;2023-08-24T05:12:32;28.44;30.83
75799;DHT22;70933;44.692;37.776;2023-08-24T05:13:36;28.46;30.65
75799;DHT22;70933;44.692;37.776;2023-08-24T05:14:38;28.47;30.32
75799;DHT22;70933;44.692;37.776;2023-08-24T05:15:39;28.47;30.18
75799;DHT22;70933;44.692;37.776;2023-08-24T05:16:41;28.47;30.15
75799;DHT22;70933;44.692;37.776;2023-08-24T05:17:42;28.48;29.68
75799;DHT22;70933;44.692;37.776;2023-08-24T05:18:44;28.48;30.95
75799;DHT22;70933;44.692;37.776;2023-08-24T05:19:45;28.49;32.89
75799;DHT22;70933;44.692;37.776;2023-08-24T05:20:47;28.52;34.34
75799;DHT22;70933;44.692;37.776;2023-08-24T05:21:48;28.53;35.47
75799;DHT22;70933;44.692;37.776;2023-08-24T05:22:50;28.54;35.30
75799;DHT22;70933;44.692;37.776;2023-08-24T05:23:52;28.57;35.15
75799;DHT22;70933;44.692;37.776;2023-08-24T05:24:53;28.56;34.86
75799;DHT22;70933;44.692;37.776;2023-08-24T05:25:56;28.56;34.49
75799;DHT22;70933;44.692;37.776;2023-08-24T05:26:58;28.57;34.68
75799;DHT22;70933;44.692;37.776;2023-08-24T05:28:00;28.57;34.25
75799;DHT22;70933;44.692;37.776;2023-08-24T05:29:01;28.57;34.47
75799;DHT22;70933;44.692;37.776;2023-08-24T05:30:03;28.58;34.31
75799;DHT22;70933;44.692;37.776;2023-08-24T05:31:06;28.57;34.53
75799;DHT22;70933;44.692;37.776;2023-08-24T05:32:08;28.57;34.63
75799;DHT22;70933;44.692;37.776;2023-08-24T05:33:09;28.57;34.89
75799;DHT22;70933;44.692;37.776;2023-08-24T05:34:11;28.56;34.57
75799;DHT22;70933;44.692;37.776;2023-08-24T05:35:12;28.57;34.69
75799;DHT22;70933;44.692;37.776;2023-08-24T05:36:14;28.57;34.78
75799;DHT22;70933;44.692;37.776;2023-08-24T05:37:15;28.59;34.70
75799;DHT22;70933;44.692;37.776;2023-08-24T05:38:17;28.58;34.60
75799;DHT22;70933;44.692;37.776;2023-08-24T05:39:19;28.59;34.55
75799;DHT22;70933;44.692;37.776;2023-08-24T05:40:20;28.59;34.31
75799;DHT22;70933;44.692;37.776;2023-08-24T05:41:22;28.60;34.25
75799;DHT22;70933;44.692;37.776;2023-08-24T05:42:23;28.61;34.41
75799;DHT22;70933;44.692;37.776;2023-08-24T05:43:25;28.63;34.76
75799;DHT22;70933;44.692;37.776;2023-08-24T05:44:26;28.64;35.79
75799;DHT22;70933;44.692;37.776;2023-08-24T05:45:28;28.69;37.37
75799;DHT22;70933;44.692;37.776;2023-08-24T05:46:29;28.71;36.70
75799;DHT22;70933;44.692;37.776;2023-08-24T05:47:31;28.70;35.98
75799;DHT22;70933;44.692;37.776;2023-08-24T05:48:32;28.70;35.60
75799;DHT22;70933;44.692;37.776;2023-08-24T05:49:34;28.73;35.49
75799;DHT22;70933;44.692;37.776;2023-08-24T05:50:36;28.72;35.04
75799;DHT22;70933;44.692;37.776;2023-08-24T05:51:38;28.73;34.72
75799;DHT22;70933;44.692;37.776;2023-08-24T05:52:40;28.73;34.82
75799;DHT22;70933;44.692;37.776;2023-08-24T05:53:42;28.74;34.45
75799;DHT22;70933;44.692;37.776;2023-08-24T05:54:43;28.75;34.22
75799;DHT22;70933;44.692;37.776;2023-08-24T05:55:44;28.74;34.01
75799;DHT22;70933;44.692;37.776;2023-08-24T05:56:47;28.75;33.99
75799;DHT22;70933;44.692;37.776;2023-08-24T05:57:48;28.76;33.83
75799;DHT22;70933;44.692;37.776;2023-08-24T05:58:50;28.76;33.54
75799;DHT22;70933;44.692;37.776;2023-08-24T05:59:52;28.75;33.51
75799;DHT22;70933;44.692;37.776;2023-08-24T06:00:58;28.76;33.39
75799;DHT22;70933;44.692;37.776;2023-08-24T06:01:59;28.76;33.50
75799;DHT22;70933;44.692;37.776;2023-08-24T06:03:01;28.77;33.28
75799;DHT22;70933;44.692;37.776;2023-08-24T06:04:10;28.77;33.05
75799;DHT22;70933;44.692;37.776;2023-08-24T06:05:11;28.77;32.98
75799;DHT22;70933;44.692;37.776;2023-08-24T06:06:13;28.77;33.04
75799;DHT22;70933;44.692;37.776;2023-08-24T06:07:16;28.79;33.00
75799;DHT22;70933;44.692;37.776;2023-08-24T06:08:17;28.79;32.86
75799;DHT22;70933;44.692;37.776;2023-08-24T06:09:19;28.78;32.77
75799;DHT22;70933;44.692;37.776;2023-08-24T06:10:20;28.78;33.37
75799;DHT22;70933;44.692;37.776;2023-08-24T06:11:23;28.79;34.34
75799;DHT22;70933;44.692;37.776;2023-08-24T06:12:24;28.82;35.82
75799;DHT22;70933;44.692;37.776;2023-08-24T06:13:26;28.84;35.40
75799;DHT22;70933;44.692;37.776;2023-08-24T06:14:27;28.84;34.66
75799;DHT22;70933;44.692;37.776;2023-08-24T06:15:29;28.84;34.44
75799;DHT22;70933;44.692;37.776;2023-08-24T06:16:30;28.84;34.29
75799;DHT22;70933;44.692;37.776;2023-08-24T06:17:32;28.83;33.91
75799;DHT22;70933;44.692;37.776;2023-08-24T06:18:34;28.84;34.04
75799;DHT22;70933;44.692;37.776;2023-08-24T06:19:35;28.83;33.65
75799;DHT22;70933;44.692;37.776;2023-08-24T06:20:37;28.84;33.45
75799;DHT22;70933;44.692;37.776;2023-08-24T06:21:38;28.83;33.13
75799;DHT22;70933;44.692;37.776;2023-08-24T06:22:40;28.84;33.09
75799;DHT22;70933;44.692;37.776;2023-08-24T06:23:42;28.83;33.41
75799;DHT22;70933;44.692;37.776;2023-08-24T06:24:44;28.84;33.63
75799;DHT22;70933;44.692;37.776;2023-08-24T06:25:46;28.83;33.44
75799;DHT22;70933;44.692;37.776;2023-08-24T06:26:47;28.82;33.26
75799;DHT22;70933;44.692;37.776;2023-08-24T06:27:49;28.82;33.38
75799;DHT22;70933;44.692;37.776;2023-08-24T06:28:50;28.80;33.05
75799;DHT22;70933;44.692;37.776;2023-08-24T06:29:52;28.82;32.86
75799;DHT22;70933;44.692;37.776;2023-08-24T06:30:54;28.80;32.73
75799;DHT22;70933;44.692;37.776;2023-08-24T06:31:56;28.80;32.82
75799;DHT22;70933;44.692;37.776;2023-08-24T06:32:58;28.79;32.61